
Distance (Route):
Temperature : 0°C
Humidity : 0%
Pressure : 0hPa| Receiver | Date | Latitude | Longitude | Direction | Speed | Altitude | Climb | Temperature | Humidity | Pressure | Voltage | Killtimer | Uptime | BKT | XDATA |
|---|---|---|---|---|---|---|---|---|---|---|---|---|---|---|---|
| SQ9PSP-11 | 2026-09-03 12:57:37 | -12.04800 | -77.05226 | 288° | 199km/h | 997m | -0.1m/s | 0°C | 0% | 0hPa | 0V | 00:00:00 | 00:00:00 | 00:00:00 | |
| SP9KGR-15 | 2026-09-03 12:57:26 | -12.04793 | -77.04671 | 253° | 199km/h | 996m | 0.1m/s | 0°C | 0% | 0hPa | 0V | 00:00:00 | 00:00:00 | 00:00:00 | |
| SP9KGR-15 | 2026-09-03 12:57:10 | -12.04249 | -77.04096 | 201° | 199km/h | 988m | -1.9m/s | 0°C | 0% | 0hPa | 0V | 00:00:00 | 00:00:00 | 00:00:00 | |
| SQ9PSP-11 | 2026-09-03 12:57:10 | -12.04249 | -77.04096 | 201° | 199km/h | 988m | -1.9m/s | 0°C | 0% | 0hPa | 0V | 00:00:00 | 00:00:00 | 00:00:00 | |
| SQ9PSP-11 | 2026-09-03 12:56:49 | -12.03273 | -77.04331 | 134° | 199km/h | 996m | 0.1m/s | 0°C | 0% | 0hPa | 0V | 00:00:00 | 00:00:00 | 00:00:00 | |
| SQ9PSP-11 | 2026-09-03 12:56:32 | -12.03049 | -77.05141 | 78° | 203km/h | 996m | 0.8m/s | 0°C | 0% | 0hPa | 0V | 00:00:00 | 00:00:00 | 00:00:00 | |
| SQ9PSP-11 | 2026-09-03 12:56:15 | -12.03570 | -77.05797 | 25° | 199km/h | 997m | 0.0m/s | 0°C | 0% | 0hPa | 0V | 00:00:00 | 00:00:00 | 00:00:00 | |
| SP9KGR-15 | 2026-09-03 12:56:15 | -12.03570 | -77.05797 | 25° | 199km/h | 997m | 0.0m/s | 0°C | 0% | 0hPa | 0V | 00:00:00 | 00:00:00 | 00:00:00 | |
| SQ9PSP-11 | 2026-09-03 12:55:54 | -12.04559 | -77.05623 | 318° | 199km/h | 1000m | 0.3m/s | 0°C | 0% | 0hPa | 0V | 00:00:00 | 00:00:00 | 00:00:00 | |
| SP9KGR-15 | 2026-09-03 12:55:54 | -12.04559 | -77.05623 | 318° | 199km/h | 1000m | 0.3m/s | 0°C | 0% | 0hPa | 0V | 00:00:00 | 00:00:00 | 00:00:00 | |
| SP9KGR-15 | 2026-09-03 12:55:35 | -12.04812 | -77.04727 | 256° | 199km/h | 1002m | 0.0m/s | 0°C | 0% | 0hPa | 0V | 00:00:00 | 00:00:00 | 00:00:00 | |
| SQ9PSP-11 | 2026-09-03 12:55:35 | -12.04812 | -77.04727 | 256° | 199km/h | 1002m | 0.0m/s | 0°C | 0% | 0hPa | 0V | 00:00:00 | 00:00:00 | 00:00:00 | |
| SP9KGR-15 | 2026-09-03 12:55:18 | -12.04260 | -77.04099 | 202° | 199km/h | 996m | 0.0m/s | 0°C | 0% | 0hPa | 0V | 00:00:00 | 00:00:00 | 00:00:00 | |
| SQ9PSP-11 | 2026-09-03 12:55:09 | -12.03812 | -77.04047 | 173° | 199km/h | 1000m | 0.1m/s | 0°C | 0% | 0hPa | 0V | 00:00:00 | 00:00:00 | 00:00:00 | |
| SP9KGR-15 | 2026-09-03 12:55:02 | -12.03479 | -77.04166 | 151° | 199km/h | 999m | 0.1m/s | 0°C | 0% | 0hPa | 0V | 00:00:00 | 00:00:00 | 00:00:00 | |
| SQ9PSP-11 | 2026-09-03 12:54:51 | -12.03112 | -77.04579 | 115° | 195km/h | 998m | -1.7m/s | 0°C | 0% | 0hPa | 0V | 00:00:00 | 00:00:00 | 00:00:00 | |
| SP9KGR-15 | 2026-09-03 12:54:45 | -12.03036 | -77.04876 | 96° | 199km/h | 998m | -0.1m/s | 0°C | 0% | 0hPa | 0V | 00:00:00 | 00:00:00 | 00:00:00 | |
| SQ9PSP-11 | 2026-09-03 12:54:31 | -12.03242 | -77.05546 | 51° | 199km/h | 999m | -0.1m/s | 0°C | 0% | 0hPa | 0V | 00:00:00 | 00:00:00 | 00:00:00 | |
| SP9KGR-15 | 2026-09-03 12:54:27 | -12.03388 | -77.05688 | 38° | 199km/h | 999m | 0.0m/s | 0°C | 0% | 0hPa | 0V | 00:00:00 | 00:00:00 | 00:00:00 | |
| SQ9PSP-11 | 2026-09-03 12:54:12 | -12.04105 | -77.05860 | 350° | 199km/h | 996m | 0.0m/s | 0°C | 0% | 0hPa | 0V | 00:00:00 | 00:00:00 | 00:00:00 | |
| SQ9PSP-11 | 2026-09-03 12:53:43 | -12.04814 | -77.04739 | 255° | 197km/h | 995m | 1.8m/s | 0°C | 0% | 0hPa | 0V | 00:00:00 | 00:00:00 | 00:00:00 | |
| SQ9PSP-11 | 2026-09-03 12:53:27 | -12.04317 | -77.04124 | 206° | 201km/h | 999m | 0.1m/s | 0°C | 0% | 0hPa | 0V | 00:00:00 | 00:00:00 | 00:00:00 | |
| SQ9PSP-11 | 2026-09-03 12:53:11 | -12.03533 | -77.04135 | 154° | 199km/h | 1001m | -0.0m/s | 0°C | 0% | 0hPa | 0V | 00:00:00 | 00:00:00 | 00:00:00 | |
| SQ9PSP-11 | 2026-09-03 12:52:53 | -12.03037 | -77.04864 | 97° | 199km/h | 1001m | -0.2m/s | 0°C | 0% | 0hPa | 0V | 00:00:00 | 00:00:00 | 00:00:00 | |
| SQ9PSP-11 | 2026-09-03 12:52:34 | -12.03421 | -77.05710 | 36° | 199km/h | 1000m | -0.1m/s | 0°C | 0% | 0hPa | 0V | 00:00:00 | 00:00:00 | 00:00:00 | |
| SQ9PSP-11 | 2026-09-03 12:52:02 | -12.04775 | -77.05301 | 293° | 199km/h | 1000m | -0.1m/s | 0°C | 0% | 0hPa | 0V | 00:00:00 | 00:00:00 | 00:00:00 | |
| SQ9PSP-11 | 2026-09-03 12:51:47 | -12.04750 | -77.04552 | 245° | 197km/h | 1002m | 0.7m/s | 0°C | 0% | 0hPa | 0V | 00:00:00 | 00:00:00 | 00:00:00 | |
| SQ9PSP-11 | 2026-09-03 12:51:31 | -12.04136 | -77.04060 | 194° | 199km/h | 1003m | 0.0m/s | 0°C | 0% | 0hPa | 0V | 00:00:00 | 00:00:00 | 00:00:00 | |
| SQ9PSP-11 | 2026-09-03 12:50:40 | -12.04836 | -77.05045 | 276° | 197km/h | 995m | 0.4m/s | 0°C | 0% | 0hPa | 0V | 00:00:00 | 00:00:00 | 00:00:00 | |
| SQ9PSP-11 | 2026-09-03 12:50:23 | -12.04529 | -77.04263 | 222° | 199km/h | 996m | -0.2m/s | 0°C | 0% | 0hPa | 0V | 00:00:00 | 00:00:00 | 00:00:00 | |
| SQ9PSP-11 | 2026-09-03 12:50:04 | -12.03627 | -77.04095 | 161° | 199km/h | 995m | 0.0m/s | 0°C | 0% | 0hPa | 0V | 00:00:00 | 00:00:00 | 00:00:00 | |
| SQ9PSP-11 | 2026-09-03 12:49:44 | -12.03038 | -77.04865 | 97° | 199km/h | 995m | 0.2m/s | 0°C | 0% | 0hPa | 0V | 00:00:00 | 00:00:00 | 00:00:00 | |
| SQ9PSP-11 | 2026-09-03 12:49:29 | -12.03269 | -77.05575 | 49° | 199km/h | 995m | -0.0m/s | 0°C | 0% | 0hPa | 0V | 00:00:00 | 00:00:00 | 00:00:00 | |
| SQ9PSP-11 | 2026-09-03 12:49:10 | -12.04145 | -77.05852 | 348° | 199km/h | 994m | 0.1m/s | 0°C | 0% | 0hPa | 0V | 00:00:00 | 00:00:00 | 00:00:00 | |
| SQ9PSP-11 | 2026-09-03 12:48:52 | -12.04792 | -77.05254 | 290° | 199km/h | 995m | 0.1m/s | 0°C | 0% | 0hPa | 0V | 00:00:00 | 00:00:00 | 00:00:00 | |
| SQ9PSP-11 | 2026-09-03 12:48:34 | -12.04641 | -77.04381 | 232° | 199km/h | 995m | 0.1m/s | 0°C | 0% | 0hPa | 0V | 00:00:00 | 00:00:00 | 00:00:00 | |
| SQ9PSP-11 | 2026-09-03 12:48:18 | -12.03934 | -77.04038 | 181° | 199km/h | 995m | 0.1m/s | 0°C | 0% | 0hPa | 0V | 00:00:00 | 00:00:00 | 00:00:00 | |
| SQ9PSP-11 | 2026-09-03 12:47:49 | -12.03034 | -77.05007 | 88° | 199km/h | 996m | -0.0m/s | 0°C | 0% | 0hPa | 0V | 00:00:00 | 00:00:00 | 00:00:00 | |
| SQ9PSP-11 | 2026-09-03 12:47:28 | -12.03636 | -77.05823 | 20° | 199km/h | 995m | 0.0m/s | 0°C | 0% | 0hPa | 0V | 00:00:00 | 00:00:00 | 00:00:00 | |
| SQ9PSP-11 | 2026-09-03 12:47:12 | -12.04414 | -77.05736 | 329° | 199km/h | 995m | 0.0m/s | 0°C | 0% | 0hPa | 0V | 00:00:00 | 00:00:00 | 00:00:00 | |
| SQ9PSP-11 | 2026-09-03 12:46:56 | -12.04834 | -77.05065 | 278° | 199km/h | 994m | -0.0m/s | 0°C | 0% | 0hPa | 0V | 00:00:00 | 00:00:00 | 00:00:00 | |
| SQ9PSP-11 | 2026-09-03 12:46:41 | -12.04614 | -77.04350 | 230° | 199km/h | 993m | -0.1m/s | 0°C | 0% | 0hPa | 0V | 00:00:00 | 00:00:00 | 00:00:00 | |
| SQ9PSP-11 | 2026-09-03 12:46:25 | -12.03893 | -77.04040 | 178° | 199km/h | 995m | -0.1m/s | 0°C | 0% | 0hPa | 0V | 00:00:00 | 00:00:00 | 00:00:00 | |
| SQ9PSP-11 | 2026-09-03 12:45:51 | -12.03097 | -77.05299 | 69° | 199km/h | 994m | -0.1m/s | 0°C | 0% | 0hPa | 0V | 00:00:00 | 00:00:00 | 00:00:00 | |
| SQ9PSP-11 | 2026-09-03 12:45:35 | -12.03674 | -77.05836 | 18° | 199km/h | 993m | -0.1m/s | 0°C | 0% | 0hPa | 0V | 00:00:00 | 00:00:00 | 00:00:00 | |
| SQ9PSP-11 | 2026-09-03 12:45:20 | -12.04405 | -77.05742 | 330° | 199km/h | 993m | 0.0m/s | 0°C | 0% | 0hPa | 0V | 00:00:00 | 00:00:00 | 00:00:00 | |
| SQ9EZE-14 | 2026-09-03 12:45:12 | -12.04693 | -77.05459 | 304° | 199km/h | 994m | 0.1m/s | 0°C | 0% | 0hPa | 0V | 00:00:00 | 00:00:00 | 00:00:00 | |
| SQ9PSP-11 | 2026-09-03 12:44:48 | -12.04586 | -77.04320 | 227° | 199km/h | 994m | -0.1m/s | 0°C | 0% | 0hPa | 0V | 00:00:00 | 00:00:00 | 00:00:00 | |
| SQ9PSP-11 | 2026-09-03 12:44:33 | -12.03901 | -77.04040 | 179° | 197km/h | 994m | 0.0m/s | 0°C | 0% | 0hPa | 0V | 00:00:00 | 00:00:00 | 00:00:00 | |
| SQ9PSP-11 | 2026-09-03 12:44:18 | -12.03241 | -77.04369 | 131° | 199km/h | 989m | -0.1m/s | 0°C | 0% | 0hPa | 0V | 00:00:00 | 00:00:00 | 00:00:00 | |
| SQ9PSP-11 | 2026-09-03 12:44:02 | -12.03050 | -77.05141 | 79° | 199km/h | 995m | -0.1m/s | 0°C | 0% | 0hPa | 0V | 00:00:00 | 00:00:00 | 00:00:00 | |
| SQ9PSP-11 | 2026-09-03 12:43:46 | -12.03524 | -77.05775 | 28° | 199km/h | 994m | 0.1m/s | 0°C | 0% | 0hPa | 0V | 00:00:00 | 00:00:00 | 00:00:00 | |
| SQ9PSP-11 | 2026-09-03 12:43:30 | -12.04306 | -77.05795 | 337° | 199km/h | 995m | -0.0m/s | 0°C | 0% | 0hPa | 0V | 00:00:00 | 00:00:00 | 00:00:00 | |
| SQ9PSP-11 | 2026-09-03 12:43:13 | -12.04822 | -77.05137 | 282° | 199km/h | 995m | 0.1m/s | 0°C | 0% | 0hPa | 0V | 00:00:00 | 00:00:00 | 00:00:00 | |
| SQ9PSP-11 | 2026-09-03 12:42:57 | -12.04627 | -77.04366 | 231° | 199km/h | 993m | 0.0m/s | 0°C | 0% | 0hPa | 0V | 00:00:00 | 00:00:00 | 00:00:00 | |
| SQ9PSP-11 | 2026-09-03 12:42:41 | -12.03912 | -77.04040 | 180° | 199km/h | 991m | 0.0m/s | 0°C | 0% | 0hPa | 0V | 00:00:00 | 00:00:00 | 00:00:00 | |
| SQ9PSP-11 | 2026-09-03 12:42:26 | -12.03247 | -77.04362 | 131° | 199km/h | 988m | 0.1m/s | 0°C | 0% | 0hPa | 0V | 00:00:00 | 00:00:00 | 00:00:00 | |
| SQ9PSP-11 | 2026-09-03 12:42:11 | -12.03039 | -77.05082 | 83° | 199km/h | 990m | -0.2m/s | 0°C | 0% | 0hPa | 0V | 00:00:00 | 00:00:00 | 00:00:00 | |
| SQ9PSP-11 | 2026-09-03 12:41:53 | -12.03559 | -77.05794 | 26° | 199km/h | 991m | -0.0m/s | 0°C | 0% | 0hPa | 0V | 00:00:00 | 00:00:00 | 00:00:00 | |
| SQ9EZE-14 | 2026-09-03 12:41:39 | -12.04249 | -77.05819 | 341° | 199km/h | 992m | -0.1m/s | 0°C | 0% | 0hPa | 0V | 00:00:00 | 00:00:00 | 00:00:00 | |
| SQ9PSP-11 | 2026-09-03 12:41:36 | -12.04386 | -77.05753 | 331° | 199km/h | 992m | -0.0m/s | 0°C | 0% | 0hPa | 0V | 00:00:00 | 00:00:00 | 00:00:00 | |
| SQ9PSP-11 | 2026-09-03 12:41:21 | -12.04818 | -77.05147 | 283° | 199km/h | 990m | 0.0m/s | 0°C | 0% | 0hPa | 0V | 00:00:00 | 00:00:00 | 00:00:00 | |
| SQ9PSP-11 | 2026-09-03 12:41:05 | -12.04597 | -77.04336 | 228° | 199km/h | 990m | 0.0m/s | 0°C | 0% | 0hPa | 0V | 00:00:00 | 00:00:00 | 00:00:00 | |
| SQ9PSP-11 | 2026-09-03 12:40:49 | -12.03918 | -77.04044 | 181° | 199km/h | 990m | 0.4m/s | 0°C | 0% | 0hPa | 0V | 00:00:00 | 00:00:00 | 00:00:00 | |
| SQ9PSP-11 | 2026-09-03 12:35:47 | 50.60355 | 21.36762 | 113° | 69km/h | 12136m | 1.0m/s | 0°C | 0% | 0hPa | 0V | 00:00:00 | 00:00:00 | 00:00:00 | |
| SQ9PSP-11 | 2026-09-03 12:35:31 | 50.60507 | 21.36350 | 114° | 69km/h | 12082m | 2.1m/s | 0°C | 0% | 0hPa | 0V | 00:00:00 | 00:00:00 | 00:00:00 | |
| SQ9PSP-11 | 2026-09-03 12:35:16 | 50.60665 | 21.35968 | 127° | 86km/h | 12034m | 1.0m/s | 0°C | 0% | 0hPa | 0V | 00:00:00 | 00:00:00 | 00:00:00 | |
| SQ9PSP-11 | 2026-09-03 12:35:00 | 50.60871 | 21.35584 | 135° | 82km/h | 11977m | 1.8m/s | 0°C | 0% | 0hPa | 0V | 00:00:00 | 00:00:00 | 00:00:00 | |
| SQ9EZE-14 | 2026-09-03 12:23:49 | 50.73110 | 21.16149 | 142° | 86km/h | 9745m | 2.5m/s | 0°C | 0% | 0hPa | 0V | 00:00:00 | 00:00:00 | 00:00:00 | |
| SQ9EZE-14 | 2026-09-03 12:23:33 | 50.73414 | 21.15759 | 140° | 97km/h | 9686m | 3.7m/s | 0°C | 0% | 0hPa | 0V | 00:00:00 | 00:00:00 | 00:00:00 | |
| SQ9EZE-14 | 2026-09-03 12:23:17 | 50.73709 | 21.15377 | 143° | 95km/h | 9632m | 1.8m/s | 0°C | 0% | 0hPa | 0V | 00:00:00 | 00:00:00 | 00:00:00 | |
| SQ9EZE-14 | 2026-09-03 12:21:58 | 50.74965 | 21.13484 | 124° | 80km/h | 9364m | 0.9m/s | 0°C | 0% | 0hPa | 0V | 00:00:00 | 00:00:00 | 00:00:00 | |
| SQ9EZE-14 | 2026-09-03 12:21:38 | 50.75229 | 21.12982 | 127° | 89km/h | 9299m | 1.6m/s | 0°C | 0% | 0hPa | 0V | 00:00:00 | 00:00:00 | 00:00:00 | |
| SQ9EZE-14 | 2026-09-03 12:09:37 | 50.83086 | 20.97364 | 135° | 75km/h | 7001m | 1.6m/s | 0°C | 0% | 0hPa | 0V | 00:00:00 | 00:00:00 | 00:00:00 | |
| SQ9EZE-14 | 2026-09-03 12:09:20 | 50.83262 | 20.97034 | 133° | 66km/h | 6952m | 3.2m/s | 0°C | 0% | 0hPa | 0V | 00:00:00 | 00:00:00 | 00:00:00 |